Aikoumaru No.8 — JD3288 — position and weather

sailwx.info

Track history (hours):
 
Tides and Currents Weather Stations Pressure Air Temp Water Temp Dewpoint Dewpoint Depression Visibility Wind Speed Wind Dir Waves Ship Positions

Aikoumaru No.8

Last reported at 2015-Jun-27 22:15 UTC. Time now 2015-Jul-02 08:08 UTC.
Position N 35°57' E 140°43'.

Length 74 m; draft 4.5 m.

Type: Cargo ship. MMSI: 431003153.

Date/timePositionNaut miles runAvg speedWind from/ knotsBaromVisibWave heightAir tempDewpointWater temp
2015-Jun-27 22:15N 35°57' E 140°43'3 4.1
2015-Jun-27 21:33N 35°56' E 140°40'0 0.0
2015-Jun-27 19:25N 35°56' E 140°40'0 0.1
2015-Jun-27 18:28N 35°56' E 140°40'0 0.1
2015-Jun-27 17:31N 35°56' E 140°40'0 0.1
2015-Jun-27 16:31N 35°56' E 140°40'0 0.1
2015-Jun-27 15:31N 35°56' E 140°40'0 0.0
2015-Jun-27 14:25N 35°56' E 140°40'0 0.1
2015-Jun-27 12:25N 35°56' E 140°40'0 0.1
2015-Jun-27 11:25N 35°56' E 140°40'0 0.0
2015-Jun-27 10:25N 35°56' E 140°40'0 0.0
2015-Jun-27 08:19N 35°56' E 140°40'0 0.1
2015-Jun-27 07:31N 35°56' E 140°40'0 0.0
2015-Jun-27 06:25N 35°56' E 140°40'2 2.5
2015-Jun-27 05:33N 35°57' E 140°42'0 0.0
2015-Jun-27 04:16N 35°57' E 140°42'0 0.0
2015-Jun-27 02:31N 35°57' E 140°42'0 0.0
2015-Jun-27 00:28N 35°57' E 140°42'0 0.0
2015-Jun-26 23:16N 35°57' E 140°42'0 0.0
2015-Jun-26 21:22N 35°57' E 140°42'0 0.0
2015-Jun-26 16:05N 35°57' E 140°42'3 5.2
2015-Jun-26 15:33N 35°56' E 140°45'2411.3
2015-Jun-26 13:26N 35°32' E 140°46'1213.7
2015-Jun-26 12:32N 35°22' E 140°37'2713.5
2015-Jun-26 10:31N 35°03' E 140°14'1313.0
2015-Jun-26 09:33N 34°56' E 140°01'1310.4
2015-Jun-26 08:17N 34°56' E 139°45'912.0
2015-Jun-26 07:33N 35°04' E 139°45'1312.7
2015-Jun-26 06:33N 35°17' E 139°45'8 7.5
2015-Jun-26 05:33N 35°24' E 139°48'4 3.7
2015-Jun-26 04:33N 35°22' E 139°51'0 0.0
2015-Jun-26 03:33N 35°22' E 139°51'0 0.0
2015-Jun-26 02:33N 35°22' E 139°51'0 0.0
2015-Jun-26 01:33N 35°22' E 139°51'0 0.0
2015-Jun-26 00:33N 35°22' E 139°51'0 0.1
2015-Jun-25 23:34N 35°21' E 139°51'6 6.3
2015-Jun-25 22:33N 35°17' E 139°46'1110.9
2015-Jun-25 21:33N 35°06' E 139°46'1110.5
2015-Jun-25 20:33N 34°55' E 139°45'75 8.3
2015-Jun-25 11:33N 35°55' E 140°40'1 0.7
2015-Jun-25 10:33N 35°56' E 140°40'0 0.0
2015-Jun-25 09:21N 35°56' E 140°40'0 0.0
2015-Jun-25 08:09N 35°56' E 140°40'0 0.0
2015-Jun-25 06:21N 35°56' E 140°40'0 0.0
2015-Jun-25 04:30N 35°56' E 140°40'0 0.0
2015-Jun-25 03:27N 35°56' E 140°40'0 0.0
2015-Jun-24 23:15N 35°56' E 140°40'0 0.1
2015-Jun-24 22:21N 35°56' E 140°40'0 0.1
2015-Jun-24 21:27N 35°56' E 140°40'0 0.0
2015-Jun-24 20:33N 35°56' E 140°40'0 0.0
2015-Jun-24 19:27N 35°56' E 140°40'0 0.0
2015-Jun-24 18:09N 35°56' E 140°40'0 0.0
2015-Jun-24 17:33N 35°56' E 140°40'0 0.0
2015-Jun-24 16:27N 35°56' E 140°40'0 0.0
2015-Jun-24 15:33N 35°56' E 140°40'0 0.0
2015-Jun-24 14:33N 35°56' E 140°40'0 0.0
2015-Jun-24 13:33N 35°56' E 140°40'0 0.0
2015-Jun-24 12:21N 35°56' E 140°40'0 0.1
2015-Jun-24 11:33N 35°56' E 140°40'0 0.0
2015-Jun-24 10:27N 35°56' E 140°40'0 0.0
2015-Jun-24 09:27N 35°56' E 140°40'0 0.0
2015-Jun-24 08:33N 35°56' E 140°40'0 0.0
2015-Jun-24 07:30N 35°56' E 140°40'0 0.0
2015-Jun-24 06:30N 35°56' E 140°40'0 0.0
2015-Jun-24 05:30N 35°56' E 140°40'0 0.0
2015-Jun-24 04:27N 35°56' E 140°40'0 0.0
2015-Jun-24 03:30N 35°56' E 140°40'0 0.0
2015-Jun-24 00:15N 35°56' E 140°40'0 0.0
2015-Jun-23 22:30N 35°56' E 140°40'0 0.1
2015-Jun-23 21:33N 35°56' E 140°40'0 0.0
2015-Jun-23 20:33N 35°56' E 140°40'0 0.0
2015-Jun-23 19:30N 35°56' E 140°40'0 0.0
2015-Jun-23 19:03N 35°56' E 140°40'25 0.6
2015-Jun-22 01:16N 35°31' E 140°45'1011.5
2015-Jun-22 00:24N 35°23' E 140°38'1011.2
2015-Jun-21 23:33N 35°15' E 140°31'1411.9
2015-Jun-21 22:20N 35°05' E 140°18'911.4
2015-Jun-21 21:33N 34°60' E 140°10'1111.3
2015-Jun-21 20:32N 34°53' E 139°58'1111.1
2015-Jun-21 19:32N 34°51' E 139°45'237 9.5
2015-Jun-20 18:33N 34°06' E 135°03'1311.5
2015-Jun-20 17:23N 34°19' E 135°04'1011.8
2015-Jun-20 16:33N 34°27' E 135°11'1211.4
2015-Jun-20 15:32N 34°36' E 135°21'5 0.8
2015-Jun-20 09:05N 34°34' E 135°27'0 0.2
2015-Jun-20 08:29N 34°34' E 135°27'1 0.2
2015-Jun-20 04:31N 34°35' E 135°27'0 0.0
2015-Jun-20 02:31N 34°35' E 135°27'0 0.0
2015-Jun-20 01:08N 34°35' E 135°27'5 8.0
2015-Jun-20 00:33N 34°38' E 135°24'2 0.1
2015-Jun-19 11:30N 34°40' E 135°26'0 0.0
2015-Jun-19 10:06N 34°40' E 135°26'0 0.0
2015-Jun-19 09:34N 34°40' E 135°26'2 1.6
2015-Jun-19 08:28N 34°38' E 135°27'0 0.0
2015-Jun-19 07:16N 34°38' E 135°27'0 0.0
2015-Jun-19 06:22N 34°38' E 135°27'1 0.7
2015-Jun-19 05:33N 34°39' E 135°27'1 0.0
2015-Jun-18 08:05N 34°38' E 135°28'0 0.0
2015-Jun-18 07:17N 34°38' E 135°28'0 0.0
2015-Jun-18 06:29N 34°38' E 135°28'0 0.0
2015-Jun-18 04:17N 34°38' E 135°28'0 0.0
2015-Jun-18 02:29N 34°38' E 135°28'1 1.3
2015-Jun-18 01:34N 34°39' E 135°26'1110.8
2015-Jun-18 00:34N 34°32' E 135°16'1211.8
2015-Jun-17 23:32N 34°22' E 135°07'1212.4
2015-Jun-17 22:33N 34°11' E 135°03'  
Track history (hours):
 
Tides and Currents Weather Stations Pressure Air Temp Water Temp Dewpoint Dewpoint Depression Visibility Wind Speed Wind Dir Waves Ship Positions

Aikoumaru No.8

Last reported at 2015-Jun-27 22:15 UTC. Time now 2015-Jul-02 08:08 UTC.
Position N 35°57' E 140°43'.

Length 74 m; draft 4.5 m.

Type: Cargo ship. MMSI: 431003153.

Date/timePositionNaut miles runAvg speedWind from/ knotsBaromVisibWave heightAir tempDewpointWater temp
2015-Jun-27 22:15N 35°57' E 140°43'3 4.1
2015-Jun-27 21:33N 35°56' E 140°40'0 0.0
2015-Jun-27 19:25N 35°56' E 140°40'0 0.1
2015-Jun-27 18:28N 35°56' E 140°40'0 0.1
2015-Jun-27 17:31N 35°56' E 140°40'0 0.1
2015-Jun-27 16:31N 35°56' E 140°40'0 0.1
2015-Jun-27 15:31N 35°56' E 140°40'0 0.0
2015-Jun-27 14:25N 35°56' E 140°40'0 0.1
2015-Jun-27 12:25N 35°56' E 140°40'0 0.1
2015-Jun-27 11:25N 35°56' E 140°40'0 0.0
2015-Jun-27 10:25N 35°56' E 140°40'0 0.0
2015-Jun-27 08:19N 35°56' E 140°40'0 0.1
2015-Jun-27 07:31N 35°56' E 140°40'0 0.0
2015-Jun-27 06:25N 35°56' E 140°40'2 2.5
2015-Jun-27 05:33N 35°57' E 140°42'0 0.0
2015-Jun-27 04:16N 35°57' E 140°42'0 0.0
2015-Jun-27 02:31N 35°57' E 140°42'0 0.0
2015-Jun-27 00:28N 35°57' E 140°42'0 0.0
2015-Jun-26 23:16N 35°57' E 140°42'0 0.0
2015-Jun-26 21:22N 35°57' E 140°42'0 0.0
2015-Jun-26 16:05N 35°57' E 140°42'3 5.2
2015-Jun-26 15:33N 35°56' E 140°45'2411.3
2015-Jun-26 13:26N 35°32' E 140°46'1213.7
2015-Jun-26 12:32N 35°22' E 140°37'2713.5
2015-Jun-26 10:31N 35°03' E 140°14'1313.0
2015-Jun-26 09:33N 34°56' E 140°01'1310.4
2015-Jun-26 08:17N 34°56' E 139°45'912.0
2015-Jun-26 07:33N 35°04' E 139°45'1312.7
2015-Jun-26 06:33N 35°17' E 139°45'8 7.5
2015-Jun-26 05:33N 35°24' E 139°48'4 3.7
2015-Jun-26 04:33N 35°22' E 139°51'0 0.0
2015-Jun-26 03:33N 35°22' E 139°51'0 0.0
2015-Jun-26 02:33N 35°22' E 139°51'0 0.0
2015-Jun-26 01:33N 35°22' E 139°51'0 0.0
2015-Jun-26 00:33N 35°22' E 139°51'0 0.1
2015-Jun-25 23:34N 35°21' E 139°51'6 6.3
2015-Jun-25 22:33N 35°17' E 139°46'1110.9
2015-Jun-25 21:33N 35°06' E 139°46'1110.5
2015-Jun-25 20:33N 34°55' E 139°45'75 8.3
2015-Jun-25 11:33N 35°55' E 140°40'1 0.7
2015-Jun-25 10:33N 35°56' E 140°40'0 0.0
2015-Jun-25 09:21N 35°56' E 140°40'0 0.0
2015-Jun-25 08:09N 35°56' E 140°40'0 0.0
2015-Jun-25 06:21N 35°56' E 140°40'0 0.0
2015-Jun-25 04:30N 35°56' E 140°40'0 0.0
2015-Jun-25 03:27N 35°56' E 140°40'0 0.0
2015-Jun-24 23:15N 35°56' E 140°40'0 0.1
2015-Jun-24 22:21N 35°56' E 140°40'0 0.1
2015-Jun-24 21:27N 35°56' E 140°40'0 0.0
2015-Jun-24 20:33N 35°56' E 140°40'0 0.0
2015-Jun-24 19:27N 35°56' E 140°40'0 0.0
2015-Jun-24 18:09N 35°56' E 140°40'0 0.0
2015-Jun-24 17:33N 35°56' E 140°40'0 0.0
2015-Jun-24 16:27N 35°56' E 140°40'0 0.0
2015-Jun-24 15:33N 35°56' E 140°40'0 0.0
2015-Jun-24 14:33N 35°56' E 140°40'0 0.0
2015-Jun-24 13:33N 35°56' E 140°40'0 0.0
2015-Jun-24 12:21N 35°56' E 140°40'0 0.1
2015-Jun-24 11:33N 35°56' E 140°40'0 0.0
2015-Jun-24 10:27N 35°56' E 140°40'0 0.0
2015-Jun-24 09:27N 35°56' E 140°40'0 0.0
2015-Jun-24 08:33N 35°56' E 140°40'0 0.0
2015-Jun-24 07:30N 35°56' E 140°40'0 0.0
2015-Jun-24 06:30N 35°56' E 140°40'0 0.0
2015-Jun-24 05:30N 35°56' E 140°40'0 0.0
2015-Jun-24 04:27N 35°56' E 140°40'0 0.0
2015-Jun-24 03:30N 35°56' E 140°40'0 0.0
2015-Jun-24 00:15N 35°56' E 140°40'0 0.0
2015-Jun-23 22:30N 35°56' E 140°40'0 0.1
2015-Jun-23 21:33N 35°56' E 140°40'0 0.0
2015-Jun-23 20:33N 35°56' E 140°40'0 0.0
2015-Jun-23 19:30N 35°56' E 140°40'0 0.0
2015-Jun-23 19:03N 35°56' E 140°40'25 0.6
2015-Jun-22 01:16N 35°31' E 140°45'1011.5
2015-Jun-22 00:24N 35°23' E 140°38'1011.2
2015-Jun-21 23:33N 35°15' E 140°31'1411.9
2015-Jun-21 22:20N 35°05' E 140°18'911.4
2015-Jun-21 21:33N 34°60' E 140°10'1111.3
2015-Jun-21 20:32N 34°53' E 139°58'1111.1
2015-Jun-21 19:32N 34°51' E 139°45'237 9.5
2015-Jun-20 18:33N 34°06' E 135°03'1311.5
2015-Jun-20 17:23N 34°19' E 135°04'1011.8
2015-Jun-20 16:33N 34°27' E 135°11'1211.4
2015-Jun-20 15:32N 34°36' E 135°21'5 0.8
2015-Jun-20 09:05N 34°34' E 135°27'0 0.2
2015-Jun-20 08:29N 34°34' E 135°27'1 0.2
2015-Jun-20 04:31N 34°35' E 135°27'0 0.0
2015-Jun-20 02:31N 34°35' E 135°27'0 0.0
2015-Jun-20 01:08N 34°35' E 135°27'5 8.0
2015-Jun-20 00:33N 34°38' E 135°24'2 0.1
2015-Jun-19 11:30N 34°40' E 135°26'0 0.0
2015-Jun-19 10:06N 34°40' E 135°26'0 0.0
2015-Jun-19 09:34N 34°40' E 135°26'2 1.6
2015-Jun-19 08:28N 34°38' E 135°27'0 0.0
2015-Jun-19 07:16N 34°38' E 135°27'0 0.0
2015-Jun-19 06:22N 34°38' E 135°27'1 0.7
2015-Jun-19 05:33N 34°39' E 135°27'1 0.0
2015-Jun-18 08:05N 34°38' E 135°28'0 0.0
2015-Jun-18 07:17N 34°38' E 135°28'0 0.0
2015-Jun-18 06:29N 34°38' E 135°28'0 0.0
2015-Jun-18 04:17N 34°38' E 135°28'0 0.0
2015-Jun-18 02:29N 34°38' E 135°28'1 1.3
2015-Jun-18 01:34N 34°39' E 135°26'1110.8
2015-Jun-18 00:34N 34°32' E 135°16'1211.8
2015-Jun-17 23:32N 34°22' E 135°07'1212.4
2015-Jun-17 22:33N 34°11' E 135°03'  

Dump ship's entire track history